createdAt,value
2023-04-17T00:01:15.732Z,63.40
2023-04-17T00:03:42.381Z,49.47
2023-04-17T00:06:08.938Z,46.70
2023-04-17T00:08:35.724Z,42.93
2023-04-17T00:11:07.706Z,44.23
2023-04-17T00:13:35.805Z,56.87
2023-04-17T00:16:02.817Z,45.57
2023-04-17T00:18:29.757Z,45.47
2023-04-17T00:20:56.198Z,60.17
2023-04-17T00:23:23.027Z,45.53
2023-04-17T00:25:49.888Z,47.90
2023-04-17T00:28:16.339Z,61.57
2023-04-17T00:30:43.148Z,50.70
2023-04-17T00:33:10.014Z,49.73
2023-04-17T00:35:36.901Z,47.65
2023-04-17T00:38:03.570Z,54.50
2023-04-17T00:40:30.080Z,46.60
2023-04-17T00:43:01.235Z,46.20
2023-04-17T00:45:28.407Z,47.60
2023-04-17T00:47:57.604Z,49.33
2023-04-17T00:50:26.250Z,47.37
2023-04-17T00:52:52.752Z,52.70
2023-04-17T00:55:20.674Z,51.97
2023-04-17T00:57:47.848Z,48.80
2023-04-17T01:00:14.817Z,49.20
2023-04-17T01:02:42.175Z,47.40
2023-04-17T01:05:09.420Z,49.05
2023-04-17T01:07:37.542Z,47.33
2023-04-17T01:10:04.276Z,50.87
2023-04-17T01:12:31.079Z,47.97
2023-04-17T01:14:57.704Z,54.40
2023-04-17T01:17:25.114Z,53.37
2023-04-17T01:19:52.203Z,54.77
2023-04-17T01:22:19.281Z,73.80
2023-04-17T01:24:45.874Z,48.40
2023-04-17T01:27:13.163Z,52.63
2023-04-17T01:29:40.531Z,52.50
2023-04-17T01:32:08.047Z,52.17
2023-04-17T01:34:37.326Z,53.93
2023-04-17T01:37:04.724Z,64.83
2023-04-17T01:39:31.572Z,55.43
2023-04-17T01:41:58.546Z,55.63
2023-04-17T01:44:25.152Z,55.17
2023-04-17T01:46:51.950Z,59.27
2023-04-17T01:49:18.440Z,76.93
2023-04-17T01:51:44.902Z,59.37
2023-04-17T01:54:11.773Z,60.13
2023-04-17T01:56:38.611Z,55.17
2023-04-17T01:59:05.457Z,61.73
2023-04-17T02:01:32.008Z,62.50
2023-04-17T02:03:58.699Z,60.87
2023-04-17T02:06:25.622Z,60.77
2023-04-17T02:08:52.485Z,59.20
2023-04-17T02:11:19.304Z,57.67
2023-04-17T02:13:46.165Z,60.50
2023-04-17T02:16:13.089Z,55.13
2023-04-17T02:18:40.968Z,79.23
2023-04-17T02:21:07.923Z,58.77
2023-04-17T02:23:34.582Z,60.30
2023-04-17T02:26:01.024Z,87.03
2023-04-17T02:28:27.821Z,59.97
2023-04-17T02:30:54.601Z,58.83
2023-04-17T02:33:21.124Z,62.50
2023-04-17T02:35:48.005Z,61.13
2023-04-17T02:38:14.474Z,82.27
2023-04-17T02:40:41.045Z,60.43
2023-04-17T02:43:07.850Z,69.03
2023-04-17T02:45:34.654Z,64.57
2023-04-17T02:48:02.062Z,60.60
2023-04-17T02:50:29.122Z,64.47
2023-04-17T02:52:55.566Z,64.57
2023-04-17T02:55:22.101Z,58.80
2023-04-17T02:57:48.544Z,88.47
2023-04-17T03:00:15.378Z,59.57
2023-04-17T03:02:42.067Z,62.03
2023-04-17T03:05:09.424Z,67.90
2023-04-17T03:07:36.296Z,63.73
2023-04-17T03:10:02.818Z,80.63
2023-04-17T03:12:29.541Z,67.03
2023-04-17T03:14:56.442Z,65.43
2023-04-17T03:17:23.518Z,86.83
2023-04-17T03:19:50.411Z,67.63
2023-04-17T03:22:17.286Z,67.47
2023-04-17T03:24:44.157Z,66.17
2023-04-17T03:27:10.639Z,69.80
2023-04-17T03:29:37.107Z,73.77
2023-04-17T03:32:04.151Z,73.03
2023-04-17T03:34:31.331Z,68.40
2023-04-17T03:36:58.290Z,92.53
2023-04-17T03:39:25.142Z,71.37
2023-04-17T03:41:51.598Z,71.70
2023-04-17T03:44:18.050Z,64.93
2023-04-17T03:46:44.795Z,65.43
2023-04-17T03:49:11.415Z,83.30
2023-04-17T03:51:38.030Z,70.57
2023-04-17T03:54:04.840Z,69.33
2023-04-17T03:56:31.263Z,70.07
2023-04-17T03:58:57.976Z,70.53
2023-04-17T04:01:24.513Z,91.67
2023-04-17T04:03:51.025Z,66.97
2023-04-17T04:06:17.891Z,69.63
2023-04-17T04:08:44.332Z,93.53
2023-04-17T04:11:10.758Z,73.47
2023-04-17T04:13:37.212Z,77.57
2023-04-17T04:16:03.697Z,77.60
2023-04-17T04:18:30.345Z,103.97
2023-04-17T04:20:56.803Z,80.33
2023-04-17T04:23:23.563Z,80.63
2023-04-17T04:25:50.136Z,104.30
2023-04-17T04:28:16.781Z,80.33
2023-04-17T04:30:43.700Z,79.33
2023-04-17T04:33:10.511Z,86.23
2023-04-17T04:35:38.495Z,84.27
2023-04-17T04:38:05.162Z,78.50
2023-04-17T04:40:33.603Z,98.53
2023-04-17T04:43:00.054Z,70.67
2023-04-17T04:45:26.891Z,80.17
2023-04-17T04:47:53.449Z,95.23
2023-04-17T04:50:19.965Z,77.53
2023-04-17T04:52:46.769Z,71.10
2023-04-17T04:55:13.301Z,105.80
2023-04-17T04:57:40.186Z,74.53
2023-04-17T05:00:07.245Z,77.03
2023-04-17T05:02:34.402Z,72.70
2023-04-17T05:05:01.136Z,74.77
2023-04-17T05:07:27.824Z,74.33
2023-04-17T05:09:54.680Z,89.43
2023-04-17T05:12:21.150Z,72.53
2023-04-17T05:14:47.943Z,74.90
2023-04-17T05:17:14.407Z,84.17
2023-04-17T05:19:41.286Z,81.50
2023-04-17T05:22:07.738Z,76.90
2023-04-17T05:24:34.581Z,80.60
2023-04-17T05:27:01.560Z,80.93
2023-04-17T05:29:28.175Z,70.33
2023-04-17T05:31:54.954Z,95.10
2023-04-17T05:34:21.452Z,77.30
2023-04-17T05:36:48.396Z,71.83
2023-04-17T05:39:14.922Z,74.73
2023-04-17T05:41:41.883Z,72.27
2023-04-17T05:44:08.456Z,75.70
2023-04-17T05:46:35.150Z,67.70
2023-04-17T05:49:01.625Z,68.40
2023-04-17T05:51:28.378Z,68.20
2023-04-17T05:53:54.830Z,71.63
2023-04-17T05:56:21.798Z,70.53
2023-04-17T05:58:48.266Z,75.57
2023-04-17T06:01:14.856Z,73.73
2023-04-17T06:03:41.811Z,73.33
2023-04-17T06:06:08.437Z,78.40
2023-04-17T06:08:34.889Z,70.27
2023-04-17T06:11:01.704Z,64.20
2023-04-17T06:13:28.614Z,69.20
2023-04-17T06:15:55.073Z,67.37
2023-04-17T06:18:21.861Z,69.37
2023-04-17T06:20:48.804Z,71.40
2023-04-17T06:23:15.244Z,68.73
2023-04-17T06:25:42.036Z,67.30
2023-04-17T06:28:08.558Z,68.97
2023-04-17T06:30:35.485Z,62.77
2023-04-17T06:33:02.069Z,66.17
2023-04-17T06:35:29.267Z,57.90
2023-04-17T06:37:55.716Z,62.17
2023-04-17T06:40:22.381Z,61.23
2023-04-17T06:42:49.281Z,64.33
2023-04-17T06:45:15.887Z,57.67
2023-04-17T06:47:45.437Z,58.03
2023-04-17T06:50:11.963Z,61.33
2023-04-17T06:52:38.807Z,57.57
2023-04-17T06:55:05.583Z,62.17
2023-04-17T06:57:32.494Z,53.47
2023-04-17T06:59:58.985Z,53.63
2023-04-17T07:02:25.959Z,56.80
2023-04-17T07:04:52.646Z,52.70
2023-04-17T07:07:19.531Z,55.17
2023-04-17T07:09:46.007Z,52.57
2023-04-17T07:12:12.842Z,52.80
2023-04-17T07:14:39.775Z,54.63
2023-04-17T07:17:07.059Z,52.03
2023-04-17T07:19:34.522Z,52.33
2023-04-17T07:22:01.328Z,50.03
2023-04-17T07:24:28.164Z,52.23
2023-04-17T07:26:55.006Z,47.90
2023-04-17T07:29:21.478Z,54.13
2023-04-17T07:31:48.275Z,48.77
2023-04-17T07:34:14.712Z,51.60
2023-04-17T07:36:41.174Z,48.00
2023-04-17T07:39:08.002Z,45.20
2023-04-17T07:41:34.823Z,48.17
2023-04-17T07:44:01.302Z,46.50
2023-04-17T07:46:28.149Z,43.83
2023-04-17T07:48:54.664Z,44.70
2023-04-17T07:51:21.486Z,46.00
2023-04-17T07:53:48.282Z,43.47
2023-04-17T07:56:15.059Z,43.20
2023-04-17T07:58:41.510Z,44.70
2023-04-17T08:01:08.401Z,43.93
2023-04-17T08:03:35.088Z,40.93
2023-04-17T08:06:02.061Z,43.03
2023-04-17T08:08:28.926Z,44.67
2023-04-17T08:10:55.373Z,47.65
2023-04-17T08:13:22.345Z,47.53
2023-04-17T08:15:48.831Z,44.30
2023-04-17T08:18:15.614Z,42.20
2023-04-17T08:20:42.073Z,40.20
2023-04-17T08:23:08.927Z,41.63
2023-04-17T08:25:35.619Z,42.05
2023-04-17T08:28:02.454Z,39.87
2023-04-17T08:30:28.913Z,38.40
2023-04-17T08:32:55.832Z,36.93
2023-04-17T08:35:22.768Z,37.13
2023-04-17T08:37:49.265Z,37.50
2023-04-17T08:40:16.633Z,41.27
2023-04-17T08:42:43.299Z,38.87
2023-04-17T08:45:14.563Z,38.17
2023-04-17T08:47:42.147Z,43.47
2023-04-17T08:50:19.135Z,37.33
2023-04-17T08:52:47.536Z,36.47
2023-04-17T08:55:19.563Z,34.73
2023-04-17T08:58:00.021Z,34.77
2023-04-17T09:00:31.515Z,37.80
2023-04-17T09:02:59.409Z,38.23
2023-04-17T09:05:27.926Z,32.30
2023-04-17T09:08:07.032Z,34.23
2023-04-17T09:10:53.715Z,35.17
2023-04-17T09:13:25.431Z,32.63
2023-04-17T09:16:10.850Z,31.27
2023-04-17T09:18:39.459Z,33.17
2023-04-17T09:21:06.959Z,34.13
2023-04-17T09:23:52.516Z,29.97
2023-04-17T09:26:32.154Z,34.27
2023-04-17T09:29:12.337Z,27.47
2023-04-17T09:31:41.650Z,31.83
2023-04-17T09:34:09.619Z,30.83
2023-04-17T09:36:37.500Z,33.07
2023-04-17T09:39:15.844Z,29.60
2023-04-17T09:41:42.714Z,30.73
2023-04-17T09:44:09.628Z,29.90
2023-04-17T09:46:43.757Z,27.10
2023-04-17T09:49:37.295Z,29.43
2023-04-17T09:52:04.442Z,30.97
2023-04-17T09:54:30.988Z,26.17
2023-04-17T09:57:00.991Z,27.00
2023-04-17T09:59:28.293Z,30.53
2023-04-17T10:01:55.349Z,26.23
2023-04-17T10:04:22.704Z,24.93
2023-04-17T10:06:50.370Z,25.13
2023-04-17T10:09:16.819Z,24.70
2023-04-17T10:11:47.191Z,26.20
2023-04-17T10:14:35.451Z,25.47
2023-04-17T10:17:26.262Z,21.83
2023-04-17T10:19:52.821Z,22.37
2023-04-17T10:22:19.615Z,18.70
2023-04-17T10:25:13.359Z,20.27
2023-04-17T10:27:40.590Z,20.93
2023-04-17T10:30:08.168Z,18.97
2023-04-17T10:32:35.023Z,20.30
2023-04-17T10:35:22.293Z,22.03
2023-04-17T10:37:49.070Z,20.30
2023-04-17T10:40:20.375Z,20.90
2023-04-17T10:43:14.688Z,20.10
2023-04-17T10:46:03.584Z,19.47
2023-04-17T10:48:48.113Z,21.77
2023-04-17T10:51:23.659Z,22.63
2023-04-17T10:53:52.144Z,19.07
2023-04-17T10:56:40.532Z,21.27
2023-04-17T10:59:11.873Z,21.27
2023-04-17T11:01:38.708Z,24.10
2023-04-17T11:04:06.417Z,19.37
2023-04-17T11:06:37.610Z,20.63
2023-04-17T11:09:08.490Z,20.03
2023-04-17T11:11:44.971Z,19.13
2023-04-17T11:14:14.833Z,20.20
2023-04-17T11:16:43.382Z,20.83
2023-04-17T11:19:11.318Z,22.45
2023-04-17T11:21:44.891Z,19.83
2023-04-17T11:24:11.630Z,22.27
2023-04-17T11:26:47.990Z,20.63
2023-04-17T11:29:18.866Z,20.13
2023-04-17T11:31:46.495Z,18.43
2023-04-17T11:34:14.029Z,19.57
2023-04-17T11:36:40.855Z,17.70
2023-04-17T11:39:07.963Z,17.37
2023-04-17T11:41:38.400Z,18.07
2023-04-17T11:44:09.628Z,18.73
2023-04-17T11:46:36.308Z,18.87
2023-04-17T11:49:06.806Z,17.53
2023-04-17T11:51:33.656Z,18.33
2023-04-17T11:54:00.582Z,18.63
2023-04-17T11:56:27.547Z,16.70
2023-04-17T11:58:55.616Z,15.83
2023-04-17T12:01:27.251Z,18.07
2023-04-17T12:03:55.550Z,19.40
2023-04-17T12:06:22.878Z,16.23
2023-04-17T12:08:51.271Z,16.60
2023-04-17T12:11:23.098Z,20.60
2023-04-17T12:13:49.878Z,17.17
2023-04-17T12:16:16.804Z,17.23
2023-04-17T12:18:43.312Z,17.73
2023-04-17T12:21:10.449Z,15.63
2023-04-17T12:23:37.417Z,17.07
2023-04-17T12:26:04.159Z,19.30
2023-04-17T12:28:30.610Z,15.27
2023-04-17T12:30:57.061Z,16.43
2023-04-17T12:33:23.662Z,15.97
2023-04-17T12:35:50.821Z,14.83
2023-04-17T12:38:17.495Z,14.53
2023-04-17T12:40:44.218Z,16.45
2023-04-17T12:43:11.034Z,15.50
2023-04-17T12:45:38.324Z,15.20
2023-04-17T12:48:07.280Z,14.70
2023-04-17T12:50:33.968Z,16.63
2023-04-17T12:53:00.758Z,14.07
2023-04-17T12:55:27.217Z,14.10
2023-04-17T12:57:54.128Z,16.67
2023-04-17T13:00:20.604Z,15.80
2023-04-17T13:02:47.451Z,14.50
2023-04-17T13:05:14.023Z,15.07
2023-04-17T13:07:40.852Z,13.00
2023-04-17T13:10:07.872Z,15.00
2023-04-17T13:12:34.725Z,14.47
2023-04-17T13:15:01.566Z,13.60
2023-04-17T13:17:28.091Z,14.10
2023-04-17T13:19:54.889Z,13.30
2023-04-17T13:22:21.343Z,14.53
2023-04-17T13:24:48.199Z,13.00
2023-04-17T13:27:14.673Z,15.93
2023-04-17T13:29:41.464Z,13.37
2023-04-17T13:32:08.814Z,13.63
2023-04-17T13:34:35.468Z,15.20
2023-04-17T13:37:01.988Z,12.53
2023-04-17T13:39:28.785Z,15.70
2023-04-17T13:41:55.595Z,15.87
2023-04-17T13:44:22.036Z,14.87
2023-04-17T13:46:48.592Z,14.37
2023-04-17T13:49:15.219Z,13.30
2023-04-17T13:51:42.166Z,13.33
2023-04-17T13:54:09.124Z,14.50
2023-04-17T13:56:36.378Z,13.33
2023-04-17T13:59:03.798Z,13.60
2023-04-17T14:01:30.271Z,14.10
2023-04-17T14:03:57.316Z,14.23
2023-04-17T14:06:23.909Z,13.50
2023-04-17T14:08:50.789Z,13.63
2023-04-17T14:11:17.237Z,10.17
2023-04-17T14:13:44.082Z,12.77
2023-04-17T14:16:10.649Z,13.10
2023-04-17T14:18:37.546Z,12.20
2023-04-17T14:21:04.591Z,11.30
2023-04-17T14:23:33.941Z,13.90
2023-04-17T14:26:00.770Z,11.23
2023-04-17T14:28:27.222Z,15.27
2023-04-17T14:30:54.040Z,11.77
2023-04-17T14:33:20.841Z,9.80
2023-04-17T14:35:47.349Z,12.30
2023-04-17T14:38:13.860Z,10.67
2023-04-17T14:40:40.337Z,11.63
2023-04-17T14:43:06.818Z,10.57
2023-04-17T14:45:33.310Z,11.00
2023-04-17T14:47:59.869Z,10.83
2023-04-17T14:50:26.396Z,10.47
2023-04-17T14:52:52.898Z,9.53
2023-04-17T14:55:19.699Z,9.10
2023-04-17T14:57:46.190Z,10.10
2023-04-17T15:00:13.634Z,11.87
2023-04-17T15:02:40.245Z,9.67
2023-04-17T15:05:07.381Z,14.67
2023-04-17T15:07:33.986Z,10.90
2023-04-17T15:10:00.931Z,9.40
2023-04-17T15:12:27.647Z,9.63
2023-04-17T15:14:54.471Z,14.73
2023-04-17T15:17:20.998Z,10.57
2023-04-17T15:19:47.874Z,9.73
2023-04-17T15:22:14.330Z,15.33
2023-04-17T15:24:40.971Z,12.37
2023-04-17T15:27:07.447Z,12.63
2023-04-17T15:29:33.905Z,12.67
2023-04-17T15:32:00.409Z,12.03
2023-04-17T15:34:27.131Z,9.33
2023-04-17T15:36:53.585Z,9.17
2023-04-17T15:39:20.016Z,11.20
2023-04-17T15:41:46.463Z,11.40
2023-04-17T15:44:13.310Z,10.63
2023-04-17T15:46:39.842Z,13.37
2023-04-17T15:51:53.610Z,11.90
2023-04-17T15:54:20.415Z,12.50
2023-04-17T15:56:46.932Z,13.00
2023-04-17T15:59:13.923Z,12.93
2023-04-17T16:01:40.487Z,13.67
2023-04-17T16:04:07.377Z,12.77
2023-04-17T16:06:34.217Z,12.80
2023-04-17T16:09:01.632Z,12.43
2023-04-17T16:11:28.086Z,11.90
2023-04-17T16:13:54.549Z,13.00
2023-04-17T16:16:21.039Z,13.07
2023-04-17T16:18:47.655Z,13.13
2023-04-17T16:21:14.560Z,12.70
2023-04-17T16:23:41.074Z,13.23
2023-04-17T16:26:07.945Z,14.67
2023-04-17T16:28:34.873Z,11.73
2023-04-17T16:31:01.753Z,12.27
2023-04-17T16:33:28.210Z,11.13
2023-04-17T16:35:55.763Z,10.63
2023-04-17T16:38:22.264Z,12.23
2023-04-17T16:40:49.091Z,13.50
2023-04-17T16:43:15.538Z,11.27
2023-04-17T16:45:41.962Z,12.27
2023-04-17T16:48:08.528Z,10.13
2023-04-17T16:50:35.021Z,10.33
2023-04-17T16:53:01.921Z,13.40
2023-04-17T16:55:28.443Z,11.53
2023-04-17T16:57:54.883Z,12.30
2023-04-17T17:00:21.528Z,14.20
2023-04-17T17:02:49.893Z,10.63
2023-04-17T17:05:16.827Z,13.73
2023-04-17T17:07:43.306Z,11.07
2023-04-17T17:10:10.571Z,13.10
2023-04-17T17:12:37.181Z,10.30
2023-04-17T17:15:05.629Z,12.50
2023-04-17T17:17:32.274Z,13.33
2023-04-17T17:19:59.121Z,10.60
2023-04-17T17:22:26.081Z,11.87
2023-04-17T17:24:52.506Z,11.47
2023-04-17T17:27:18.970Z,13.03
2023-04-17T17:29:45.443Z,13.57
2023-04-17T17:32:11.931Z,13.07
2023-04-17T17:34:38.418Z,11.43
2023-04-17T17:37:04.870Z,14.23
2023-04-17T17:39:31.333Z,12.10
2023-04-17T17:41:57.795Z,13.17
2023-04-17T17:44:24.550Z,13.27
2023-04-17T17:46:51.019Z,11.47
2023-04-17T17:49:17.519Z,12.07
2023-04-17T17:51:44.065Z,13.67
2023-04-17T17:54:10.813Z,13.40
2023-04-17T17:56:37.535Z,12.47
2023-04-17T17:59:03.988Z,14.63
2023-04-17T18:01:30.510Z,14.13
2023-04-17T18:03:57.192Z,13.00
2023-04-17T18:06:23.781Z,12.77
2023-04-17T18:08:50.229Z,13.10
2023-04-17T18:11:16.817Z,12.20
2023-04-17T18:13:43.297Z,14.93
2023-04-17T18:16:10.541Z,15.77
2023-04-17T18:18:37.036Z,14.77
2023-04-17T18:21:07.802Z,15.73
2023-04-17T18:23:34.912Z,15.23
2023-04-17T18:26:03.025Z,17.83
2023-04-17T18:28:29.574Z,13.77
2023-04-17T18:30:56.195Z,12.97
2023-04-17T18:33:23.011Z,14.70
2023-04-17T18:35:49.502Z,12.20
2023-04-17T18:38:16.122Z,14.80
2023-04-17T18:40:42.568Z,12.70
2023-04-17T18:43:09.007Z,14.03
2023-04-17T18:45:35.830Z,14.03
2023-04-17T18:48:02.777Z,15.53
2023-04-17T18:50:29.320Z,13.80
2023-04-17T18:52:55.781Z,13.47
2023-04-17T18:55:22.389Z,15.80
2023-04-17T18:57:49.060Z,16.87
2023-04-17T19:00:15.734Z,15.27
2023-04-17T19:02:42.348Z,17.43
2023-04-17T19:05:09.451Z,15.77
2023-04-17T19:07:36.093Z,18.23
2023-04-17T19:10:02.560Z,17.23
2023-04-17T19:12:29.002Z,15.17
2023-04-17T19:14:56.317Z,16.63
2023-04-17T19:17:23.418Z,19.87
2023-04-17T19:19:50.250Z,15.70
2023-04-17T19:22:16.732Z,18.57
2023-04-17T19:24:43.230Z,17.97
2023-04-17T19:27:10.091Z,19.87
2023-04-17T19:29:36.529Z,19.77
2023-04-17T19:32:03.568Z,18.63
2023-04-17T19:34:30.033Z,18.07
2023-04-17T19:36:56.751Z,18.63
2023-04-17T19:39:23.215Z,18.93
2023-04-17T19:41:49.755Z,17.17
2023-04-17T19:44:16.926Z,17.17
2023-04-17T19:46:43.797Z,17.07
2023-04-17T19:49:11.149Z,18.47
2023-04-17T19:51:39.017Z,18.10
2023-04-17T19:54:05.585Z,17.20
2023-04-17T19:56:32.084Z,16.47
2023-04-17T19:59:02.175Z,15.20
2023-04-17T20:01:30.794Z,16.13
2023-04-17T20:03:58.632Z,15.70
2023-04-17T20:06:25.682Z,17.80
2023-04-17T20:08:52.212Z,16.27
2023-04-17T20:11:19.112Z,21.03
2023-04-17T20:13:46.417Z,18.17
2023-04-17T20:16:13.325Z,17.87
2023-04-17T20:18:39.876Z,17.37
2023-04-17T20:21:06.349Z,18.20
2023-04-17T20:23:33.023Z,18.57
2023-04-17T20:25:59.533Z,17.47
2023-04-17T20:28:26.006Z,16.50
2023-04-17T20:30:52.895Z,18.73
2023-04-17T20:33:19.716Z,15.03
2023-04-17T20:35:46.228Z,16.43
2023-04-17T20:38:12.743Z,16.40
2023-04-17T20:40:39.197Z,16.83
2023-04-17T20:43:05.682Z,15.27
2023-04-17T20:45:32.241Z,16.83
2023-04-17T20:47:58.724Z,16.43
2023-04-17T20:50:25.232Z,19.47
2023-04-17T20:52:52.018Z,17.90
2023-04-17T20:55:18.537Z,17.00
2023-04-17T20:57:45.201Z,18.20
2023-04-17T21:00:12.189Z,18.30
2023-04-17T21:02:38.905Z,18.03
2023-04-17T21:05:06.822Z,18.37
2023-04-17T21:07:33.706Z,20.10
2023-04-17T21:10:00.162Z,18.40
2023-04-17T21:12:26.773Z,15.23
2023-04-17T21:14:53.542Z,16.83
2023-04-17T21:17:20.089Z,17.37
2023-04-17T21:19:46.560Z,17.63
2023-04-17T21:22:13.166Z,14.10
2023-04-17T21:24:39.698Z,20.00
2023-04-17T21:27:06.188Z,17.90
2023-04-17T21:29:33.012Z,20.73
2023-04-17T21:31:59.532Z,20.43
2023-04-17T21:34:26.182Z,18.07
2023-04-17T21:36:53.878Z,19.20
2023-04-17T21:39:21.945Z,18.00
2023-04-17T21:41:48.421Z,24.87
2023-04-17T21:44:15.909Z,19.37
2023-04-17T21:46:45.668Z,19.10
2023-04-17T21:49:12.492Z,17.53
2023-04-17T21:51:39.019Z,18.23
2023-04-17T21:54:05.859Z,15.30
2023-04-17T21:56:32.420Z,19.33
2023-04-17T21:58:59.199Z,17.57
2023-04-17T22:01:25.670Z,19.13
2023-04-17T22:03:52.226Z,16.50
2023-04-17T22:06:19.285Z,20.67
2023-04-17T22:08:46.130Z,17.93
2023-04-17T22:11:12.898Z,17.07
2023-04-17T22:13:39.342Z,16.43
2023-04-17T22:16:06.764Z,16.17
2023-04-17T22:18:33.228Z,17.60
2023-04-17T22:21:00.085Z,16.17
2023-04-17T22:23:27.025Z,14.97
2023-04-17T22:25:53.505Z,14.43
2023-04-17T22:28:20.299Z,15.43
2023-04-17T22:30:50.044Z,16.20
2023-04-17T22:33:16.979Z,13.63
2023-04-17T22:35:43.815Z,15.17
2023-04-17T22:38:10.280Z,15.20
2023-04-17T22:40:37.076Z,15.07
2023-04-17T22:43:03.526Z,13.80
2023-04-17T22:45:30.335Z,10.87
2023-04-17T22:47:57.291Z,13.97
2023-04-17T22:50:24.198Z,17.03
2023-04-17T22:52:50.783Z,15.50
2023-04-17T22:55:17.624Z,15.27
2023-04-17T22:57:44.434Z,21.20
2023-04-17T23:00:11.335Z,15.00
2023-04-17T23:02:37.897Z,15.23
2023-04-17T23:05:06.004Z,17.53
2023-04-17T23:07:32.617Z,18.57
2023-04-17T23:09:59.520Z,12.57
2023-04-17T23:12:25.989Z,12.10
2023-04-17T23:14:52.823Z,12.63
2023-04-17T23:17:19.313Z,11.63
2023-04-17T23:19:46.130Z,14.63
2023-04-17T23:22:12.672Z,16.70
2023-04-17T23:24:39.579Z,12.30
2023-04-17T23:27:06.030Z,9.70
2023-04-17T23:29:32.482Z,15.57
2023-04-17T23:31:59.327Z,13.93
2023-04-17T23:34:26.121Z,17.87
2023-04-17T23:36:52.942Z,12.73
2023-04-17T23:39:19.374Z,15.03
2023-04-17T23:41:46.205Z,13.23
2023-04-17T23:44:12.851Z,16.80
2023-04-17T23:46:40.095Z,11.47
2023-04-17T23:49:06.732Z,20.03
2023-04-17T23:51:33.703Z,13.87
2023-04-17T23:54:00.629Z,17.23
2023-04-17T23:56:27.902Z,14.37
2023-04-17T23:58:54.726Z,14.90
